sensor_id;sensor_type;location;lat;lon;timestamp;P1;durP1;ratioP1;P2;durP2;ratioP2
63943;SDS011;50121;51.218;7.664;2023-11-21T00:00:17;15.25;;;9.55;;
63943;SDS011;50121;51.218;7.664;2023-11-21T00:02:45;12.98;;;9.82;;
63943;SDS011;50121;51.218;7.664;2023-11-21T00:05:13;12.65;;;9.80;;
63943;SDS011;50121;51.218;7.664;2023-11-21T00:07:41;15.63;;;10.18;;
63943;SDS011;50121;51.218;7.664;2023-11-21T00:10:11;14.85;;;11.18;;
63943;SDS011;50121;51.218;7.664;2023-11-21T00:12:40;17.92;;;10.10;;
63943;SDS011;50121;51.218;7.664;2023-11-21T00:15:09;12.30;;;9.75;;
63943;SDS011;50121;51.218;7.664;2023-11-21T00:17:39;11.30;;;9.13;;
63943;SDS011;50121;51.218;7.664;2023-11-21T00:20:07;14.25;;;9.30;;
63943;SDS011;50121;51.218;7.664;2023-11-21T00:22:39;12.52;;;9.32;;
63943;SDS011;50121;51.218;7.664;2023-11-21T00:25:07;12.80;;;9.35;;
63943;SDS011;50121;51.218;7.664;2023-11-21T00:27:35;15.18;;;9.02;;
63943;SDS011;50121;51.218;7.664;2023-11-21T00:30:03;12.65;;;8.77;;
63943;SDS011;50121;51.218;7.664;2023-11-21T00:32:33;11.57;;;8.55;;
63943;SDS011;50121;51.218;7.664;2023-11-21T00:35:00;12.63;;;8.70;;
63943;SDS011;50121;51.218;7.664;2023-11-21T00:37:28;10.02;;;8.50;;
63943;SDS011;50121;51.218;7.664;2023-11-21T00:39:55;15.05;;;8.95;;
63943;SDS011;50121;51.218;7.664;2023-11-21T00:42:23;15.30;;;8.48;;
63943;SDS011;50121;51.218;7.664;2023-11-21T00:44:50;10.82;;;7.97;;
63943;SDS011;50121;51.218;7.664;2023-11-21T00:47:18;9.68;;;8.18;;
63943;SDS011;50121;51.218;7.664;2023-11-21T00:49:45;12.68;;;8.73;;
63943;SDS011;50121;51.218;7.664;2023-11-21T00:52:14;16.73;;;11.13;;
63943;SDS011;50121;51.218;7.664;2023-11-21T00:54:42;16.52;;;12.18;;
63943;SDS011;50121;51.218;7.664;2023-11-21T00:57:11;17.75;;;12.50;;
63943;SDS011;50121;51.218;7.664;2023-11-21T00:59:39;20.27;;;13.75;;
63943;SDS011;50121;51.218;7.664;2023-11-21T01:02:06;19.30;;;12.30;;
63943;SDS011;50121;51.218;7.664;2023-11-21T01:04:36;18.50;;;11.90;;
63943;SDS011;50121;51.218;7.664;2023-11-21T01:07:04;16.48;;;11.93;;
63943;SDS011;50121;51.218;7.664;2023-11-21T01:09:32;19.02;;;11.75;;
63943;SDS011;50121;51.218;7.664;2023-11-21T01:11:59;16.15;;;11.10;;
63943;SDS011;50121;51.218;7.664;2023-11-21T01:14:27;13.93;;;10.82;;
63943;SDS011;50121;51.218;7.664;2023-11-21T01:16:56;14.75;;;10.50;;
63943;SDS011;50121;51.218;7.664;2023-11-21T01:19:24;18.17;;;10.57;;
63943;SDS011;50121;51.218;7.664;2023-11-21T01:21:51;16.30;;;9.90;;
63943;SDS011;50121;51.218;7.664;2023-11-21T01:24:19;14.63;;;10.05;;
63943;SDS011;50121;51.218;7.664;2023-11-21T01:26:47;16.25;;;10.02;;
63943;SDS011;50121;51.218;7.664;2023-11-21T01:29:14;15.75;;;9.95;;
63943;SDS011;50121;51.218;7.664;2023-11-21T01:31:42;18.17;;;10.68;;
63943;SDS011;50121;51.218;7.664;2023-11-21T01:34:10;14.43;;;9.93;;
63943;SDS011;50121;51.218;7.664;2023-11-21T01:36:38;16.25;;;10.40;;
63943;SDS011;50121;51.218;7.664;2023-11-21T01:39:05;15.48;;;10.23;;
63943;SDS011;50121;51.218;7.664;2023-11-21T01:41:37;14.88;;;9.60;;
63943;SDS011;50121;51.218;7.664;2023-11-21T01:44:05;13.23;;;9.95;;
63943;SDS011;50121;51.218;7.664;2023-11-21T01:46:35;11.73;;;9.63;;
63943;SDS011;50121;51.218;7.664;2023-11-21T01:49:04;18.63;;;10.13;;
63943;SDS011;50121;51.218;7.664;2023-11-21T01:51:32;16.42;;;10.18;;
63943;SDS011;50121;51.218;7.664;2023-11-21T01:54:02;16.80;;;10.65;;
63943;SDS011;50121;51.218;7.664;2023-11-21T01:56:33;17.08;;;10.40;;
63943;SDS011;50121;51.218;7.664;2023-11-21T01:59:00;16.27;;;10.85;;
63943;SDS011;50121;51.218;7.664;2023-11-21T02:01:28;13.85;;;10.55;;
63943;SDS011;50121;51.218;7.664;2023-11-21T02:03:55;17.38;;;10.73;;
63943;SDS011;50121;51.218;7.664;2023-11-21T02:06:23;21.38;;;11.18;;
63943;SDS011;50121;51.218;7.664;2023-11-21T02:08:52;14.18;;;10.02;;
63943;SDS011;50121;51.218;7.664;2023-11-21T02:11:20;15.65;;;11.00;;
63943;SDS011;50121;51.218;7.664;2023-11-21T02:13:47;14.90;;;10.90;;
63943;SDS011;50121;51.218;7.664;2023-11-21T02:16:16;18.77;;;11.20;;
63943;SDS011;50121;51.218;7.664;2023-11-21T02:18:44;20.63;;;11.27;;
63943;SDS011;50121;51.218;7.664;2023-11-21T02:21:14;21.30;;;13.25;;
63943;SDS011;50121;51.218;7.664;2023-11-21T02:23:42;30.92;;;16.80;;
63943;SDS011;50121;51.218;7.664;2023-11-21T02:26:10;25.98;;;15.63;;
63943;SDS011;50121;51.218;7.664;2023-11-21T02:28:38;19.63;;;13.25;;
63943;SDS011;50121;51.218;7.664;2023-11-21T02:31:06;21.33;;;13.30;;
63943;SDS011;50121;51.218;7.664;2023-11-21T02:33:34;26.55;;;13.02;;
63943;SDS011;50121;51.218;7.664;2023-11-21T02:36:02;19.70;;;12.77;;
63943;SDS011;50121;51.218;7.664;2023-11-21T02:38:29;23.30;;;12.73;;
63943;SDS011;50121;51.218;7.664;2023-11-21T02:40:57;21.83;;;11.95;;
63943;SDS011;50121;51.218;7.664;2023-11-21T02:43:28;23.40;;;12.98;;
63943;SDS011;50121;51.218;7.664;2023-11-21T02:45:56;18.20;;;11.68;;
63943;SDS011;50121;51.218;7.664;2023-11-21T02:48:23;21.10;;;12.88;;
63943;SDS011;50121;51.218;7.664;2023-11-21T02:50:52;19.33;;;12.45;;
63943;SDS011;50121;51.218;7.664;2023-11-21T02:53:19;19.88;;;12.15;;
63943;SDS011;50121;51.218;7.664;2023-11-21T02:55:47;25.30;;;12.45;;
63943;SDS011;50121;51.218;7.664;2023-11-21T02:58:15;23.15;;;11.55;;
63943;SDS011;50121;51.218;7.664;2023-11-21T03:00:42;24.98;;;12.80;;
63943;SDS011;50121;51.218;7.664;2023-11-21T03:03:10;18.98;;;11.55;;
63943;SDS011;50121;51.218;7.664;2023-11-21T03:05:37;19.85;;;11.65;;
63943;SDS011;50121;51.218;7.664;2023-11-21T03:08:06;18.10;;;11.23;;
63943;SDS011;50121;51.218;7.664;2023-11-21T03:10:34;22.27;;;13.98;;
63943;SDS011;50121;51.218;7.664;2023-11-21T03:13:02;22.42;;;11.85;;
63943;SDS011;50121;51.218;7.664;2023-11-21T03:15:31;23.55;;;13.45;;
63943;SDS011;50121;51.218;7.664;2023-11-21T03:17:59;23.05;;;13.02;;
63943;SDS011;50121;51.218;7.664;2023-11-21T03:20:26;22.30;;;12.60;;
63943;SDS011;50121;51.218;7.664;2023-11-21T03:22:54;22.30;;;12.57;;
63943;SDS011;50121;51.218;7.664;2023-11-21T03:25:21;21.77;;;11.88;;
63943;SDS011;50121;51.218;7.664;2023-11-21T03:27:50;22.50;;;11.95;;
63943;SDS011;50121;51.218;7.664;2023-11-21T03:30:18;24.27;;;12.93;;
63943;SDS011;50121;51.218;7.664;2023-11-21T03:32:46;22.83;;;11.95;;
63943;SDS011;50121;51.218;7.664;2023-11-21T03:35:14;22.70;;;12.05;;
63943;SDS011;50121;51.218;7.664;2023-11-21T03:37:42;18.30;;;10.90;;
63943;SDS011;50121;51.218;7.664;2023-11-21T03:40:10;20.35;;;11.27;;
63943;SDS011;50121;51.218;7.664;2023-11-21T03:42:39;23.52;;;11.50;;
63943;SDS011;50121;51.218;7.664;2023-11-21T03:45:07;17.30;;;10.32;;
63943;SDS011;50121;51.218;7.664;2023-11-21T03:47:35;19.52;;;10.82;;
63943;SDS011;50121;51.218;7.664;2023-11-21T03:50:03;24.02;;;11.25;;
63943;SDS011;50121;51.218;7.664;2023-11-21T03:52:30;23.98;;;10.93;;
63943;SDS011;50121;51.218;7.664;2023-11-21T03:54:59;20.33;;;10.75;;
63943;SDS011;50121;51.218;7.664;2023-11-21T03:57:27;22.60;;;11.38;;
63943;SDS011;50121;51.218;7.664;2023-11-21T03:59:55;21.48;;;11.13;;
63943;SDS011;50121;51.218;7.664;2023-11-21T04:02:22;20.13;;;11.25;;
63943;SDS011;50121;51.218;7.664;2023-11-21T04:04:52;20.52;;;10.80;;
63943;SDS011;50121;51.218;7.664;2023-11-21T04:07:20;19.27;;;10.73;;
63943;SDS011;50121;51.218;7.664;2023-11-21T04:09:48;20.88;;;11.60;;
63943;SDS011;50121;51.218;7.664;2023-11-21T04:12:16;21.13;;;10.73;;
63943;SDS011;50121;51.218;7.664;2023-11-21T04:14:43;18.23;;;10.55;;
63943;SDS011;50121;51.218;7.664;2023-11-21T04:17:11;18.98;;;11.40;;
63943;SDS011;50121;51.218;7.664;2023-11-21T04:19:38;18.00;;;10.60;;
63943;SDS011;50121;51.218;7.664;2023-11-21T04:22:13;18.90;;;10.75;;
63943;SDS011;50121;51.218;7.664;2023-11-21T04:24:40;16.42;;;11.13;;
63943;SDS011;50121;51.218;7.664;2023-11-21T04:27:08;23.20;;;10.80;;
63943;SDS011;50121;51.218;7.664;2023-11-21T04:29:35;20.15;;;11.52;;
63943;SDS011;50121;51.218;7.664;2023-11-21T04:32:03;27.77;;;13.00;;
63943;SDS011;50121;51.218;7.664;2023-11-21T04:34:31;22.27;;;10.90;;
63943;SDS011;50121;51.218;7.664;2023-11-21T04:36:58;22.50;;;11.35;;
63943;SDS011;50121;51.218;7.664;2023-11-21T04:39:26;21.05;;;11.57;;
63943;SDS011;50121;51.218;7.664;2023-11-21T04:41:54;20.35;;;11.30;;
63943;SDS011;50121;51.218;7.664;2023-11-21T04:44:21;18.88;;;11.15;;
63943;SDS011;50121;51.218;7.664;2023-11-21T04:46:49;24.75;;;12.05;;
63943;SDS011;50121;51.218;7.664;2023-11-21T04:49:16;23.10;;;12.73;;
63943;SDS011;50121;51.218;7.664;2023-11-21T04:51:44;20.95;;;12.15;;
63943;SDS011;50121;51.218;7.664;2023-11-21T04:54:12;21.77;;;11.13;;
63943;SDS011;50121;51.218;7.664;2023-11-21T04:56:39;23.40;;;11.75;;
63943;SDS011;50121;51.218;7.664;2023-11-21T04:59:07;23.90;;;12.32;;
63943;SDS011;50121;51.218;7.664;2023-11-21T05:01:35;21.73;;;11.15;;
63943;SDS011;50121;51.218;7.664;2023-11-21T05:04:03;23.60;;;12.05;;
63943;SDS011;50121;51.218;7.664;2023-11-21T05:06:32;20.13;;;11.40;;
63943;SDS011;50121;51.218;7.664;2023-11-21T05:09:00;18.67;;;11.48;;
63943;SDS011;50121;51.218;7.664;2023-11-21T05:11:28;26.02;;;12.20;;
63943;SDS011;50121;51.218;7.664;2023-11-21T05:13:55;23.52;;;12.45;;
63943;SDS011;50121;51.218;7.664;2023-11-21T05:16:28;24.88;;;12.30;;
63943;SDS011;50121;51.218;7.664;2023-11-21T05:18:58;21.27;;;12.07;;
63943;SDS011;50121;51.218;7.664;2023-11-21T05:21:27;18.80;;;12.23;;
63943;SDS011;50121;51.218;7.664;2023-11-21T05:23:57;22.83;;;12.55;;
63943;SDS011;50121;51.218;7.664;2023-11-21T05:26:24;22.83;;;11.68;;
63943;SDS011;50121;51.218;7.664;2023-11-21T05:28:52;20.65;;;11.75;;
63943;SDS011;50121;51.218;7.664;2023-11-21T05:31:19;23.08;;;12.88;;
63943;SDS011;50121;51.218;7.664;2023-11-21T05:33:47;19.15;;;11.30;;
63943;SDS011;50121;51.218;7.664;2023-11-21T05:36:15;21.45;;;11.40;;
63943;SDS011;50121;51.218;7.664;2023-11-21T05:38:43;20.70;;;12.05;;
63943;SDS011;50121;51.218;7.664;2023-11-21T05:41:10;19.90;;;11.60;;
63943;SDS011;50121;51.218;7.664;2023-11-21T05:43:39;19.52;;;12.00;;
63943;SDS011;50121;51.218;7.664;2023-11-21T05:46:07;24.08;;;12.57;;
63943;SDS011;50121;51.218;7.664;2023-11-21T05:48:35;17.60;;;11.77;;
63943;SDS011;50121;51.218;7.664;2023-11-21T05:51:06;23.02;;;12.50;;
63943;SDS011;50121;51.218;7.664;2023-11-21T05:53:34;19.67;;;11.32;;
63943;SDS011;50121;51.218;7.664;2023-11-21T05:56:02;19.95;;;11.50;;
63943;SDS011;50121;51.218;7.664;2023-11-21T05:58:30;21.52;;;11.45;;
63943;SDS011;50121;51.218;7.664;2023-11-21T06:00:58;25.85;;;11.93;;
63943;SDS011;50121;51.218;7.664;2023-11-21T06:03:25;20.75;;;12.18;;
63943;SDS011;50121;51.218;7.664;2023-11-21T06:05:53;20.95;;;13.07;;
63943;SDS011;50121;51.218;7.664;2023-11-21T06:08:20;25.45;;;11.73;;
63943;SDS011;50121;51.218;7.664;2023-11-21T06:10:48;22.85;;;12.48;;
63943;SDS011;50121;51.218;7.664;2023-11-21T06:13:16;26.95;;;12.52;;
63943;SDS011;50121;51.218;7.664;2023-11-21T06:15:46;24.98;;;13.00;;
63943;SDS011;50121;51.218;7.664;2023-11-21T06:18:14;24.00;;;12.75;;
63943;SDS011;50121;51.218;7.664;2023-11-21T06:20:41;23.23;;;12.10;;
63943;SDS011;50121;51.218;7.664;2023-11-21T06:23:09;24.00;;;12.07;;
63943;SDS011;50121;51.218;7.664;2023-11-21T06:25:36;22.85;;;12.35;;
63943;SDS011;50121;51.218;7.664;2023-11-21T06:28:04;24.08;;;12.45;;
63943;SDS011;50121;51.218;7.664;2023-11-21T06:30:32;20.52;;;11.40;;
63943;SDS011;50121;51.218;7.664;2023-11-21T06:32:59;25.50;;;12.80;;
63943;SDS011;50121;51.218;7.664;2023-11-21T06:35:27;25.25;;;13.25;;
63943;SDS011;50121;51.218;7.664;2023-11-21T06:37:57;22.35;;;13.57;;
63943;SDS011;50121;51.218;7.664;2023-11-21T06:40:24;33.45;;;14.13;;
63943;SDS011;50121;51.218;7.664;2023-11-21T06:42:51;28.83;;;13.98;;
63943;SDS011;50121;51.218;7.664;2023-11-21T06:45:19;25.77;;;13.38;;
63943;SDS011;50121;51.218;7.664;2023-11-21T06:47:48;26.33;;;13.30;;
63943;SDS011;50121;51.218;7.664;2023-11-21T06:50:15;27.42;;;13.45;;
63943;SDS011;50121;51.218;7.664;2023-11-21T06:52:43;27.73;;;14.43;;
63943;SDS011;50121;51.218;7.664;2023-11-21T06:55:10;30.25;;;15.27;;
63943;SDS011;50121;51.218;7.664;2023-11-21T06:57:38;27.65;;;15.77;;
63943;SDS011;50121;51.218;7.664;2023-11-21T07:00:06;29.33;;;15.45;;
63943;SDS011;50121;51.218;7.664;2023-11-21T07:02:35;29.92;;;16.05;;
63943;SDS011;50121;51.218;7.664;2023-11-21T07:05:03;30.23;;;14.40;;
63943;SDS011;50121;51.218;7.664;2023-11-21T07:07:31;29.63;;;15.50;;
63943;SDS011;50121;51.218;7.664;2023-11-21T07:10:01;27.40;;;14.18;;
63943;SDS011;50121;51.218;7.664;2023-11-21T07:12:31;30.17;;;14.10;;
63943;SDS011;50121;51.218;7.664;2023-11-21T07:14:59;25.17;;;14.48;;
63943;SDS011;50121;51.218;7.664;2023-11-21T07:17:27;30.33;;;14.57;;
63943;SDS011;50121;51.218;7.664;2023-11-21T07:19:55;30.92;;;14.40;;
63943;SDS011;50121;51.218;7.664;2023-11-21T07:22:23;28.50;;;14.05;;
63943;SDS011;50121;51.218;7.664;2023-11-21T07:24:50;27.88;;;14.02;;
63943;SDS011;50121;51.218;7.664;2023-11-21T07:27:18;29.42;;;14.15;;
63943;SDS011;50121;51.218;7.664;2023-11-21T07:29:45;28.00;;;13.32;;
63943;SDS011;50121;51.218;7.664;2023-11-21T07:32:14;32.35;;;14.18;;
63943;SDS011;50121;51.218;7.664;2023-11-21T07:34:42;30.38;;;13.88;;
63943;SDS011;50121;51.218;7.664;2023-11-21T07:37:10;28.80;;;13.95;;
63943;SDS011;50121;51.218;7.664;2023-11-21T07:39:38;29.42;;;13.25;;
63943;SDS011;50121;51.218;7.664;2023-11-21T07:42:08;33.53;;;14.10;;
63943;SDS011;50121;51.218;7.664;2023-11-21T07:44:37;30.33;;;13.65;;
63943;SDS011;50121;51.218;7.664;2023-11-21T07:47:05;28.35;;;12.90;;
63943;SDS011;50121;51.218;7.664;2023-11-21T07:49:32;24.40;;;12.20;;
63943;SDS011;50121;51.218;7.664;2023-11-21T07:52:00;29.63;;;11.52;;
63943;SDS011;50121;51.218;7.664;2023-11-21T07:54:27;24.90;;;10.82;;
63943;SDS011;50121;51.218;7.664;2023-11-21T07:56:55;21.17;;;11.10;;
63943;SDS011;50121;51.218;7.664;2023-11-21T07:59:22;23.23;;;11.38;;
63943;SDS011;50121;51.218;7.664;2023-11-21T08:01:50;23.27;;;11.40;;
63943;SDS011;50121;51.218;7.664;2023-11-21T08:04:18;22.52;;;11.52;;
63943;SDS011;50121;51.218;7.664;2023-11-21T08:06:45;25.67;;;11.98;;
63943;SDS011;50121;51.218;7.664;2023-11-21T08:09:14;25.25;;;12.50;;
63943;SDS011;50121;51.218;7.664;2023-11-21T08:11:44;25.65;;;12.35;;
63943;SDS011;50121;51.218;7.664;2023-11-21T08:14:13;28.88;;;12.90;;
63943;SDS011;50121;51.218;7.664;2023-11-21T08:16:41;26.17;;;13.60;;
63943;SDS011;50121;51.218;7.664;2023-11-21T08:19:09;27.98;;;13.18;;
63943;SDS011;50121;51.218;7.664;2023-11-21T08:21:37;24.60;;;13.07;;
63943;SDS011;50121;51.218;7.664;2023-11-21T08:24:06;33.63;;;13.95;;
63943;SDS011;50121;51.218;7.664;2023-11-21T08:26:37;29.90;;;12.68;;
63943;SDS011;50121;51.218;7.664;2023-11-21T08:29:04;30.77;;;14.35;;
63943;SDS011;50121;51.218;7.664;2023-11-21T08:31:33;30.67;;;14.88;;
63943;SDS011;50121;51.218;7.664;2023-11-21T08:34:01;32.00;;;14.57;;
63943;SDS011;50121;51.218;7.664;2023-11-21T08:36:29;31.33;;;15.10;;
63943;SDS011;50121;51.218;7.664;2023-11-21T08:38:58;31.50;;;14.50;;
63943;SDS011;50121;51.218;7.664;2023-11-21T08:41:26;25.73;;;12.38;;
63943;SDS011;50121;51.218;7.664;2023-11-21T08:43:54;19.33;;;11.65;;
63943;SDS011;50121;51.218;7.664;2023-11-21T08:46:22;22.98;;;12.25;;
63943;SDS011;50121;51.218;7.664;2023-11-21T08:48:53;22.05;;;12.45;;
63943;SDS011;50121;51.218;7.664;2023-11-21T08:51:21;21.98;;;12.10;;
63943;SDS011;50121;51.218;7.664;2023-11-21T08:53:48;19.58;;;11.52;;
63943;SDS011;50121;51.218;7.664;2023-11-21T08:56:16;25.40;;;12.30;;
63943;SDS011;50121;51.218;7.664;2023-11-21T08:58:45;21.50;;;11.25;;
63943;SDS011;50121;51.218;7.664;2023-11-21T09:01:17;25.10;;;12.05;;
63943;SDS011;50121;51.218;7.664;2023-11-21T09:03:44;20.92;;;12.18;;
63943;SDS011;50121;51.218;7.664;2023-11-21T09:06:12;23.70;;;13.20;;
63943;SDS011;50121;51.218;7.664;2023-11-21T09:08:40;20.60;;;11.32;;
63943;SDS011;50121;51.218;7.664;2023-11-21T09:11:08;20.92;;;11.77;;
63943;SDS011;50121;51.218;7.664;2023-11-21T09:13:36;21.17;;;11.77;;
63943;SDS011;50121;51.218;7.664;2023-11-21T09:16:04;27.38;;;13.98;;
63943;SDS011;50121;51.218;7.664;2023-11-21T09:18:32;25.90;;;13.25;;
63943;SDS011;50121;51.218;7.664;2023-11-21T09:20:59;26.13;;;13.23;;
63943;SDS011;50121;51.218;7.664;2023-11-21T09:23:27;26.75;;;12.48;;
63943;SDS011;50121;51.218;7.664;2023-11-21T09:25:55;21.13;;;11.98;;
63943;SDS011;50121;51.218;7.664;2023-11-21T09:28:23;22.30;;;12.48;;
63943;SDS011;50121;51.218;7.664;2023-11-21T09:30:51;28.13;;;13.00;;
63943;SDS011;50121;51.218;7.664;2023-11-21T09:33:19;23.83;;;11.55;;
63943;SDS011;50121;51.218;7.664;2023-11-21T09:35:48;24.30;;;12.65;;
63943;SDS011;50121;51.218;7.664;2023-11-21T09:38:17;26.88;;;12.50;;
63943;SDS011;50121;51.218;7.664;2023-11-21T09:40:45;27.13;;;11.35;;
63943;SDS011;50121;51.218;7.664;2023-11-21T09:43:16;20.92;;;11.77;;
63943;SDS011;50121;51.218;7.664;2023-11-21T09:45:45;23.65;;;12.48;;
63943;SDS011;50121;51.218;7.664;2023-11-21T09:48:14;25.27;;;11.70;;
63943;SDS011;50121;51.218;7.664;2023-11-21T09:50:43;23.70;;;12.68;;
63943;SDS011;50121;51.218;7.664;2023-11-21T09:53:12;21.15;;;11.88;;
63943;SDS011;50121;51.218;7.664;2023-11-21T09:55:45;22.30;;;12.55;;
63943;SDS011;50121;51.218;7.664;2023-11-21T09:58:14;23.15;;;12.10;;
63943;SDS011;50121;51.218;7.664;2023-11-21T10:00:42;22.25;;;12.85;;
63943;SDS011;50121;51.218;7.664;2023-11-21T10:03:10;27.70;;;13.05;;
63943;SDS011;50121;51.218;7.664;2023-11-21T10:05:39;22.08;;;11.57;;
63943;SDS011;50121;51.218;7.664;2023-11-21T10:08:07;26.67;;;12.07;;
63943;SDS011;50121;51.218;7.664;2023-11-21T10:10:36;27.58;;;13.68;;
63943;SDS011;50121;51.218;7.664;2023-11-21T10:13:05;30.77;;;14.15;;
63943;SDS011;50121;51.218;7.664;2023-11-21T10:15:34;27.33;;;13.00;;
63943;SDS011;50121;51.218;7.664;2023-11-21T10:18:02;25.30;;;13.30;;
63943;SDS011;50121;51.218;7.664;2023-11-21T10:20:31;28.10;;;13.10;;
63943;SDS011;50121;51.218;7.664;2023-11-21T10:23:00;25.65;;;12.05;;
63943;SDS011;50121;51.218;7.664;2023-11-21T10:25:29;25.55;;;12.77;;
63943;SDS011;50121;51.218;7.664;2023-11-21T10:27:58;28.50;;;11.77;;
63943;SDS011;50121;51.218;7.664;2023-11-21T10:30:32;22.83;;;10.32;;
63943;SDS011;50121;51.218;7.664;2023-11-21T10:33:00;23.48;;;11.82;;
63943;SDS011;50121;51.218;7.664;2023-11-21T10:38:09;26.67;;;10.95;;
63943;SDS011;50121;51.218;7.664;2023-11-21T10:40:40;23.35;;;11.02;;
63943;SDS011;50121;51.218;7.664;2023-11-21T10:43:09;24.98;;;11.73;;
63943;SDS011;50121;51.218;7.664;2023-11-21T10:45:37;24.20;;;11.65;;
63943;SDS011;50121;51.218;7.664;2023-11-21T10:48:14;18.92;;;11.23;;
63943;SDS011;50121;51.218;7.664;2023-11-21T10:50:43;19.95;;;10.18;;
63943;SDS011;50121;51.218;7.664;2023-11-21T10:53:10;25.65;;;11.07;;
63943;SDS011;50121;51.218;7.664;2023-11-21T10:55:39;17.67;;;9.60;;
63943;SDS011;50121;51.218;7.664;2023-11-21T10:58:07;23.42;;;9.48;;
63943;SDS011;50121;51.218;7.664;2023-11-21T11:00:37;21.90;;;9.90;;
63943;SDS011;50121;51.218;7.664;2023-11-21T11:03:06;20.88;;;10.43;;
63943;SDS011;50121;51.218;7.664;2023-11-21T11:05:40;18.55;;;9.88;;
63943;SDS011;50121;51.218;7.664;2023-11-21T11:08:08;18.88;;;9.40;;
63943;SDS011;50121;51.218;7.664;2023-11-21T11:10:36;20.17;;;10.60;;
63943;SDS011;50121;51.218;7.664;2023-11-21T11:13:04;20.20;;;10.50;;
63943;SDS011;50121;51.218;7.664;2023-11-21T11:15:31;18.30;;;10.32;;
63943;SDS011;50121;51.218;7.664;2023-11-21T11:17:59;19.73;;;10.32;;
63943;SDS011;50121;51.218;7.664;2023-11-21T11:20:32;20.90;;;11.05;;
63943;SDS011;50121;51.218;7.664;2023-11-21T11:25:43;21.27;;;10.30;;
63943;SDS011;50121;51.218;7.664;2023-11-21T11:28:15;19.38;;;10.55;;
63943;SDS011;50121;51.218;7.664;2023-11-21T11:31:04;22.55;;;10.68;;
63943;SDS011;50121;51.218;7.664;2023-11-21T11:33:38;19.38;;;10.13;;
63943;SDS011;50121;51.218;7.664;2023-11-21T11:36:13;21.52;;;10.25;;
63943;SDS011;50121;51.218;7.664;2023-11-21T11:38:47;20.95;;;10.93;;
63943;SDS011;50121;51.218;7.664;2023-11-21T11:41:33;22.48;;;10.07;;
63943;SDS011;50121;51.218;7.664;2023-11-21T11:44:01;18.20;;;9.52;;
63943;SDS011;50121;51.218;7.664;2023-11-21T11:46:42;22.75;;;10.60;;
63943;SDS011;50121;51.218;7.664;2023-11-21T11:49:24;16.60;;;8.75;;
63943;SDS011;50121;51.218;7.664;2023-11-21T11:54:38;13.70;;;8.77;;
63943;SDS011;50121;51.218;7.664;2023-11-21T11:57:06;19.20;;;9.27;;
63943;SDS011;50121;51.218;7.664;2023-11-21T11:59:47;19.92;;;8.20;;
63943;SDS011;50121;51.218;7.664;2023-11-21T12:02:23;19.50;;;8.27;;
63943;SDS011;50121;51.218;7.664;2023-11-21T12:04:55;15.50;;;7.57;;
63943;SDS011;50121;51.218;7.664;2023-11-21T12:07:23;16.63;;;7.43;;
63943;SDS011;50121;51.218;7.664;2023-11-21T12:09:51;19.67;;;7.07;;
63943;SDS011;50121;51.218;7.664;2023-11-21T12:12:21;10.65;;;6.15;;
63943;SDS011;50121;51.218;7.664;2023-11-21T12:14:49;10.80;;;6.05;;
63943;SDS011;50121;51.218;7.664;2023-11-21T12:17:17;13.10;;;5.97;;
63943;SDS011;50121;51.218;7.664;2023-11-21T12:19:44;12.43;;;6.25;;
63943;SDS011;50121;51.218;7.664;2023-11-21T12:22:13;10.45;;;6.10;;
63943;SDS011;50121;51.218;7.664;2023-11-21T12:24:40;11.02;;;5.43;;
63943;SDS011;50121;51.218;7.664;2023-11-21T12:27:08;11.90;;;5.75;;
63943;SDS011;50121;51.218;7.664;2023-11-21T12:29:35;11.48;;;5.88;;
63943;SDS011;50121;51.218;7.664;2023-11-21T12:32:04;9.63;;;6.50;;
63943;SDS011;50121;51.218;7.664;2023-11-21T12:34:33;10.68;;;6.07;;
63943;SDS011;50121;51.218;7.664;2023-11-21T12:37:01;12.80;;;6.32;;
63943;SDS011;50121;51.218;7.664;2023-11-21T12:39:28;10.75;;;6.15;;
63943;SDS011;50121;51.218;7.664;2023-11-21T12:41:56;9.50;;;6.05;;
63943;SDS011;50121;51.218;7.664;2023-11-21T12:44:24;13.27;;;6.20;;
63943;SDS011;50121;51.218;7.664;2023-11-21T12:46:52;8.68;;;6.05;;
63943;SDS011;50121;51.218;7.664;2023-11-21T12:49:21;9.00;;;6.28;;
63943;SDS011;50121;51.218;7.664;2023-11-21T12:51:52;14.13;;;7.03;;
63943;SDS011;50121;51.218;7.664;2023-11-21T12:54:21;14.55;;;7.80;;
63943;SDS011;50121;51.218;7.664;2023-11-21T12:56:48;10.57;;;7.57;;
63943;SDS011;50121;51.218;7.664;2023-11-21T12:59:16;12.15;;;7.13;;
63943;SDS011;50121;51.218;7.664;2023-11-21T13:01:44;14.45;;;6.88;;
63943;SDS011;50121;51.218;7.664;2023-11-21T13:04:12;11.65;;;7.93;;
63943;SDS011;50121;51.218;7.664;2023-11-21T13:06:41;12.05;;;8.13;;
63943;SDS011;50121;51.218;7.664;2023-11-21T13:09:08;14.23;;;8.23;;
63943;SDS011;50121;51.218;7.664;2023-11-21T13:11:44;14.60;;;8.18;;
63943;SDS011;50121;51.218;7.664;2023-11-21T13:14:12;19.85;;;15.90;;
63943;SDS011;50121;51.218;7.664;2023-11-21T13:16:40;15.90;;;8.70;;
63943;SDS011;50121;51.218;7.664;2023-11-21T13:19:12;12.05;;;8.30;;
63943;SDS011;50121;51.218;7.664;2023-11-21T13:21:40;15.25;;;8.75;;
63943;SDS011;50121;51.218;7.664;2023-11-21T13:24:08;12.98;;;8.30;;
63943;SDS011;50121;51.218;7.664;2023-11-21T13:26:37;20.48;;;9.85;;
63943;SDS011;50121;51.218;7.664;2023-11-21T13:29:05;14.73;;;8.43;;
63943;SDS011;50121;51.218;7.664;2023-11-21T13:31:33;14.77;;;9.02;;
63943;SDS011;50121;51.218;7.664;2023-11-21T13:34:03;14.27;;;8.52;;
63943;SDS011;50121;51.218;7.664;2023-11-21T13:36:32;14.75;;;8.48;;
63943;SDS011;50121;51.218;7.664;2023-11-21T13:39:02;15.75;;;8.18;;
63943;SDS011;50121;51.218;7.664;2023-11-21T13:41:36;16.98;;;8.20;;
63943;SDS011;50121;51.218;7.664;2023-11-21T13:44:06;15.65;;;8.43;;
63943;SDS011;50121;51.218;7.664;2023-11-21T13:46:42;13.23;;;7.47;;
63943;SDS011;50121;51.218;7.664;2023-11-21T13:49:12;11.80;;;6.80;;
63943;SDS011;50121;51.218;7.664;2023-11-21T13:51:45;14.80;;;7.32;;
63943;SDS011;50121;51.218;7.664;2023-11-21T13:54:16;16.52;;;6.90;;
63943;SDS011;50121;51.218;7.664;2023-11-21T13:56:45;74.10;;;7.95;;
63943;SDS011;50121;51.218;7.664;2023-11-21T13:59:13;72.45;;;7.15;;
63943;SDS011;50121;51.218;7.664;2023-11-21T14:01:49;55.70;;;7.43;;
63943;SDS011;50121;51.218;7.664;2023-11-21T14:04:26;106.35;;;8.95;;
63943;SDS011;50121;51.218;7.664;2023-11-21T14:06:56;231.95;;;11.95;;
63943;SDS011;50121;51.218;7.664;2023-11-21T14:09:27;189.45;;;9.90;;
63943;SDS011;50121;51.218;7.664;2023-11-21T14:12:10;139.73;;;8.90;;
63943;SDS011;50121;51.218;7.664;2023-11-21T14:14:41;153.85;;;9.85;;
63943;SDS011;50121;51.218;7.664;2023-11-21T14:17:10;218.68;;;11.57;;
63943;SDS011;50121;51.218;7.664;2023-11-21T14:19:38;254.68;;;12.10;;
63943;SDS011;50121;51.218;7.664;2023-11-21T14:22:10;332.58;;;13.63;;
63943;SDS011;50121;51.218;7.664;2023-11-21T14:24:37;384.67;;;15.68;;
63943;SDS011;50121;51.218;7.664;2023-11-21T14:27:10;300.45;;;13.48;;
63943;SDS011;50121;51.218;7.664;2023-11-21T14:29:38;398.25;;;15.32;;
63943;SDS011;50121;51.218;7.664;2023-11-21T14:32:10;440.73;;;15.68;;
63943;SDS011;50121;51.218;7.664;2023-11-21T14:34:38;262.58;;;12.38;;
63943;SDS011;50121;51.218;7.664;2023-11-21T14:37:08;325.00;;;13.60;;
63943;SDS011;50121;51.218;7.664;2023-11-21T14:39:35;389.23;;;15.48;;